Time;durP1;ratioP1;P1;durP2;ratioP2;P2;SDS_P1;SDS_P2;PMS_P1;PMS_P2;Temp;Humidity;BMP_temperature;BMP_pressure;BME280_temperature;BME280_humidity;BME280_pressure;Samples;Min_cycle;Max_cycle;Signal;HPM_P1;HPM_P2
2023/09/22 00:00:14;;;;;;;0.57;0.40;;;18.20;61.00;;;;;;5000470;28;20429;-58
2023/09/22 00:02:42;;;;;;;3.25;0.73;;;18.10;61.00;;;;;;5001377;28;20054;-59
2023/09/22 00:05:10;;;;;;;0.60;0.50;;;18.10;60.90;;;;;;5002652;28;20061;-60
2023/09/22 00:07:37;;;;;;;1.05;0.50;;;18.10;61.00;;;;;;5002641;28;20056;-56
2023/09/22 00:10:06;;;;;;;2.42;0.70;;;18.10;61.00;;;;;;5002481;28;20117;-59
2023/09/22 00:12:34;;;;;;;1.02;0.63;;;18.10;61.10;;;;;;5002355;28;20062;-58
2023/09/22 00:15:04;;;;;;;0.65;0.50;;;18.10;61.80;;;;;;5002098;28;20093;-58
2023/09/22 00:17:35;;;;;;;0.98;0.50;;;18.00;61.00;;;;;;5001149;28;20053;-58
2023/09/22 00:20:02;;;;;;;1.83;0.73;;;18.00;61.00;;;;;;5002341;28;20049;-57
2023/09/22 00:22:30;;;;;;;1.58;0.85;;;18.00;61.00;;;;;;5002262;28;20695;-60
2023/09/22 00:24:57;;;;;;;1.95;0.80;;;18.00;61.10;;;;;;5001933;28;20437;-58
2023/09/22 00:27:24;;;;;;;1.67;0.70;;;18.00;61.10;;;;;;5002064;28;20061;-59
2023/09/22 00:29:53;;;;;;;1.77;0.65;;;18.00;61.10;;;;;;5000903;28;20406;-59
2023/09/22 00:32:20;;;;;;;1.15;0.70;;;17.90;61.10;;;;;;5002257;28;20053;-58
2023/09/22 00:34:48;;;;;;;2.58;0.70;;;17.90;61.10;;;;;;5002993;28;20050;-59
2023/09/22 00:37:15;;;;;;;0.93;0.68;;;18.00;61.20;;;;;;5004024;28;20046;-59
2023/09/22 00:39:42;;;;;;;1.58;0.60;;;17.90;61.20;;;;;;5002485;28;20053;-59
2023/09/22 00:42:09;;;;;;;1.38;0.70;;;17.90;61.10;;;;;;5001742;28;20053;-60
2023/09/22 00:44:37;;;;;;;2.13;0.65;;;17.90;61.00;;;;;;5002605;28;20061;-59
2023/09/22 00:47:07;;;;;;;1.00;0.60;;;17.90;61.10;;;;;;5002910;28;20050;-60
2023/09/22 00:49:35;;;;;;;1.05;0.57;;;17.90;61.10;;;;;;5002039;28;20061;-58
2023/09/22 00:52:03;;;;;;;1.50;0.80;;;17.90;61.10;;;;;;5001540;28;20049;-59
2023/09/22 00:54:31;;;;;;;3.05;0.60;;;17.90;61.00;;;;;;5002696;28;20490;-57
2023/09/22 00:57:01;;;;;;;1.40;0.50;;;17.90;61.00;;;;;;5001640;28;20082;-58
2023/09/22 00:59:28;;;;;;;1.13;0.70;;;17.90;61.00;;;;;;5001618;28;20069;-59
2023/09/22 01:01:55;;;;;;;1.05;0.60;;;17.80;60.90;;;;;;5001686;28;20060;-59
2023/09/22 01:04:24;;;;;;;1.02;0.55;;;17.80;60.90;;;;;;5000828;28;20061;-59
2023/09/22 01:06:52;;;;;;;0.93;0.50;;;17.80;60.90;;;;;;5001428;28;20054;-58
2023/09/22 01:09:19;;;;;;;1.92;0.70;;;17.80;60.80;;;;;;5001733;28;20353;-58
2023/09/22 01:11:47;;;;;;;0.55;0.52;;;17.80;60.70;;;;;;5002752;28;20445;-59
2023/09/22 01:14:14;;;;;;;0.55;0.40;;;17.80;60.70;;;;;;5001835;28;20421;-59
2023/09/22 01:16:42;;;;;;;2.20;0.90;;;17.80;60.60;;;;;;5001645;28;20061;-58
2023/09/22 01:19:16;;;;;;;1.55;0.80;;;17.80;60.40;;;;;;5002411;28;20057;-60
2023/09/22 01:21:46;;;;;;;1.65;0.63;;;17.70;60.10;;;;;;5002984;28;20057;-58
2023/09/22 01:24:13;;;;;;;1.45;0.68;;;17.70;60.00;;;;;;5003007;28;20065;-59
2023/09/22 01:26:41;;;;;;;1.65;0.70;;;17.70;59.90;;;;;;5000972;28;20057;-59
2023/09/22 01:29:09;;;;;;;1.25;0.60;;;17.70;59.90;;;;;;5001564;28;21174;-58
2023/09/22 01:31:36;;;;;;;0.65;0.60;;;17.60;59.80;;;;;;5000601;28;20385;-58
2023/09/22 01:34:04;;;;;;;1.50;0.60;;;17.60;59.80;;;;;;5002345;28;20053;-58
2023/09/22 01:36:32;;;;;;;1.02;0.50;;;17.60;59.80;;;;;;5001174;28;20528;-59
2023/09/22 01:39:01;;;;;;;1.33;0.50;;;17.50;59.80;;;;;;5002504;28;20053;-58
2023/09/22 01:41:29;;;;;;;1.63;0.80;;;17.50;59.70;;;;;;5001755;28;20062;-59
2023/09/22 01:43:56;;;;;;;3.78;0.60;;;17.50;59.70;;;;;;5002461;28;20057;-59
2023/09/22 01:46:23;;;;;;;1.70;0.88;;;17.50;59.70;;;;;;5000573;28;20058;-59
2023/09/22 01:48:50;;;;;;;1.25;0.68;;;17.40;59.60;;;;;;5002854;28;20049;-58
2023/09/22 01:51:18;;;;;;;0.60;0.60;;;17.40;59.60;;;;;;5002145;28;20054;-58
2023/09/22 01:53:45;;;;;;;2.95;0.88;;;17.40;59.70;;;;;;5001973;28;20091;-59
2023/09/22 01:56:14;;;;;;;0.77;0.40;;;17.40;59.70;;;;;;5001943;28;20057;-55
2023/09/22 01:58:41;;;;;;;1.55;0.73;;;17.30;59.70;;;;;;5002212;28;20058;-59
2023/09/22 02:01:08;;;;;;;1.35;0.60;;;17.30;59.70;;;;;;5000482;28;20836;-59
2023/09/22 02:03:35;;;;;;;1.30;0.65;;;17.30;59.70;;;;;;5000752;28;21612;-58
2023/09/22 02:06:04;;;;;;;1.77;0.60;;;17.20;59.70;;;;;;5001759;28;20072;-59
2023/09/22 02:08:31;;;;;;;1.58;0.60;;;17.20;59.70;;;;;;5002149;28;20057;-58
2023/09/22 02:10:58;;;;;;;1.58;0.60;;;17.20;59.70;;;;;;5003835;28;20050;-58
2023/09/22 02:13:27;;;;;;;1.08;0.60;;;17.20;59.70;;;;;;5004821;28;20537;-58
2023/09/22 02:15:54;;;;;;;1.08;0.50;;;17.20;59.50;;;;;;5003139;28;20054;-59
2023/09/22 02:18:23;;;;;;;1.55;0.85;;;17.20;59.30;;;;;;5005406;28;20062;-59
2023/09/22 02:20:51;;;;;;;4.05;0.82;;;17.10;59.10;;;;;;5004706;28;20387;-59
2023/09/22 02:23:19;;;;;;;1.02;0.60;;;17.10;59.10;;;;;;5004318;28;20057;-59
2023/09/22 02:25:46;;;;;;;1.92;0.55;;;17.10;59.20;;;;;;5005013;28;20053;-58
2023/09/22 02:28:13;;;;;;;1.92;0.98;;;17.10;59.20;;;;;;5005143;28;20054;-58
2023/09/22 02:30:42;;;;;;;1.60;0.70;;;17.00;59.20;;;;;;5003385;28;20054;-58
2023/09/22 02:33:09;;;;;;;3.80;0.70;;;17.00;59.30;;;;;;5004287;28;20053;-58
2023/09/22 02:35:40;;;;;;;2.20;0.88;;;17.00;59.30;;;;;;5004665;28;20046;-57
2023/09/22 02:38:08;;;;;;;0.77;0.40;;;17.00;59.30;;;;;;5004647;28;20054;-57
2023/09/22 02:40:35;;;;;;;3.80;1.40;;;16.90;59.20;;;;;;5004786;28;20084;-56
2023/09/22 02:43:03;;;;;;;0.98;0.47;;;16.90;59.20;;;;;;5005202;28;20065;-58
2023/09/22 02:45:30;;;;;;;0.73;0.60;;;16.90;59.10;;;;;;5003333;28;20056;-57
2023/09/22 02:47:59;;;;;;;0.80;0.50;;;16.80;59.00;;;;;;5003943;28;20042;-58
2023/09/22 02:50:26;;;;;;;1.83;0.70;;;16.80;59.10;;;;;;5004244;28;21805;-57
2023/09/22 02:52:53;;;;;;;0.95;0.50;;;16.80;59.10;;;;;;5005312;28;20589;-58
2023/09/22 02:55:20;;;;;;;1.70;0.68;;;16.80;59.20;;;;;;5003619;28;20054;-58
2023/09/22 02:57:48;;;;;;;2.83;0.63;;;16.80;59.20;;;;;;5005764;28;20439;-59
2023/09/22 03:00:17;;;;;;;1.60;0.52;;;16.80;59.30;;;;;;5003226;28;20418;-58
2023/09/22 03:02:45;;;;;;;1.88;0.75;;;16.70;59.20;;;;;;5004742;28;20068;-59
2023/09/22 03:05:15;;;;;;;1.02;0.63;;;16.70;59.10;;;;;;5004211;28;20065;-59
2023/09/22 03:07:43;;;;;;;0.93;0.60;;;16.70;59.00;;;;;;5003484;28;20061;-55
2023/09/22 03:10:11;;;;;;;1.40;0.68;;;16.60;59.00;;;;;;5002959;28;20049;-58
2023/09/22 03:12:39;;;;;;;2.80;0.68;;;16.60;59.00;;;;;;5003666;28;20061;-54
2023/09/22 03:15:09;;;;;;;1.00;0.70;;;16.60;59.00;;;;;;5003091;28;20064;-50
2023/09/22 03:17:37;;;;;;;0.60;0.50;;;16.60;59.00;;;;;;5003496;28;20065;-52
2023/09/22 03:20:07;;;;;;;1.50;0.65;;;16.60;59.10;;;;;;5003555;28;20075;-53
2023/09/22 03:22:38;;;;;;;0.95;0.63;;;16.50;59.10;;;;;;5003673;28;20080;-52
2023/09/22 03:25:06;;;;;;;2.85;0.70;;;16.50;59.20;;;;;;5003500;28;20076;-56
2023/09/22 03:27:34;;;;;;;2.58;0.70;;;16.50;59.20;;;;;;5003259;28;20486;-53
2023/09/22 03:30:02;;;;;;;1.38;0.90;;;16.50;59.20;;;;;;5002877;28;21107;-52
2023/09/22 03:32:29;;;;;;;2.75;1.10;;;16.50;59.10;;;;;;5003174;28;20053;-54
2023/09/22 03:34:57;;;;;;;0.90;0.60;;;16.40;59.00;;;;;;5004228;28;20062;-57
2023/09/22 03:37:27;;;;;;;1.20;0.75;;;16.40;59.00;;;;;;5003457;28;20060;-52
2023/09/22 03:39:56;;;;;;;0.90;0.60;;;16.40;59.00;;;;;;5003532;28;20561;-55
2023/09/22 03:42:24;;;;;;;0.80;0.70;;;16.40;59.20;;;;;;5003362;28;20061;-58
2023/09/22 03:44:52;;;;;;;1.25;0.75;;;16.40;59.20;;;;;;5002165;28;20050;-56
2023/09/22 03:47:19;;;;;;;1.15;0.73;;;16.40;59.30;;;;;;5002184;28;20410;-52
2023/09/22 03:49:46;;;;;;;3.63;0.98;;;16.40;59.30;;;;;;5003218;28;20060;-53
2023/09/22 03:52:14;;;;;;;3.65;0.80;;;16.30;59.20;;;;;;5003312;28;20049;-54
2023/09/22 03:54:41;;;;;;;3.63;0.70;;;16.30;59.20;;;;;;5003608;28;20459;-54
2023/09/22 03:57:10;;;;;;;1.20;0.55;;;16.30;59.40;;;;;;5002436;28;20493;-55
2023/09/22 03:59:37;;;;;;;1.50;0.40;;;16.30;59.50;;;;;;5003148;28;20061;-55
2023/09/22 04:02:06;;;;;;;1.27;0.75;;;16.30;59.60;;;;;;5001673;28;20061;-54
2023/09/22 04:04:34;;;;;;;1.13;0.60;;;16.40;59.70;;;;;;5004005;28;20057;-52
2023/09/22 04:07:01;;;;;;;1.08;0.70;;;16.30;59.80;;;;;;5002577;28;20053;-53
2023/09/22 04:09:29;;;;;;;1.58;0.80;;;16.40;59.90;;;;;;5003175;28;20049;-54
2023/09/22 04:11:57;;;;;;;1.38;0.80;;;16.40;59.90;;;;;;5003379;28;20054;-54
2023/09/22 04:14:26;;;;;;;2.22;0.70;;;16.40;59.90;;;;;;5002385;28;20058;-55
2023/09/22 04:16:53;;;;;;;1.45;0.70;;;16.40;59.90;;;;;;5002047;28;20064;-53
2023/09/22 04:19:20;;;;;;;1.33;0.75;;;16.40;59.90;;;;;;5004332;28;20049;-54
2023/09/22 04:21:49;;;;;;;1.60;0.73;;;16.40;60.00;;;;;;5003907;28;20050;-58
2023/09/22 04:24:20;;;;;;;1.85;0.70;;;16.40;60.10;;;;;;5004421;28;20058;-60
2023/09/22 04:26:49;;;;;;;4.65;1.02;;;16.40;60.10;;;;;;5003287;28;20045;-58
2023/09/22 04:29:17;;;;;;;2.30;0.77;;;16.50;60.20;;;;;;5002618;28;20885;-59
2023/09/22 04:31:46;;;;;;;0.90;0.60;;;16.50;60.30;;;;;;5001911;28;20054;-57
2023/09/22 04:34:14;;;;;;;1.30;0.63;;;16.50;60.30;;;;;;5004397;28;20060;-59
2023/09/22 04:36:46;;;;;;;2.47;0.80;;;16.50;60.30;;;;;;5003312;28;20057;-59
2023/09/22 04:39:14;;;;;;;0.82;0.50;;;16.50;60.30;;;;;;5002914;28;20058;-58
2023/09/22 04:41:41;;;;;;;1.98;0.82;;;16.50;60.30;;;;;;5002485;28;20513;-58
2023/09/22 04:44:09;;;;;;;1.50;0.70;;;16.50;60.40;;;;;;5002321;28;20053;-59
2023/09/22 04:46:36;;;;;;;2.38;0.70;;;16.60;60.60;;;;;;5001687;28;20498;-59
2023/09/22 04:49:04;;;;;;;3.22;0.82;;;16.50;60.50;;;;;;5002234;28;20058;-59
2023/09/22 04:51:32;;;;;;;2.05;0.85;;;16.50;60.60;;;;;;5002393;28;20052;-59
2023/09/22 04:53:59;;;;;;;9.52;1.00;;;16.60;60.70;;;;;;5002798;28;20050;-58
2023/09/22 04:56:26;;;;;;;2.20;0.82;;;16.60;60.60;;;;;;5002380;28;20610;-59
2023/09/22 04:58:56;;;;;;;0.90;0.70;;;16.60;60.60;;;;;;5001481;28;20061;-59
2023/09/22 05:01:25;;;;;;;1.45;0.70;;;16.60;60.50;;;;;;4999793;28;20065;-58
2023/09/22 05:03:52;;;;;;;0.90;0.57;;;16.60;60.50;;;;;;5001671;28;20065;-59
2023/09/22 05:06:22;;;;;;;2.22;0.82;;;16.60;60.50;;;;;;4999487;28;20046;-59
2023/09/22 05:08:51;;;;;;;1.05;0.68;;;16.60;60.60;;;;;;5002493;28;20053;-57
2023/09/22 05:11:18;;;;;;;1.30;0.93;;;16.60;60.40;;;;;;5001885;28;20053;-56
2023/09/22 05:13:46;;;;;;;1.20;0.85;;;16.60;60.40;;;;;;5004045;28;20049;-59
2023/09/22 05:16:14;;;;;;;2.97;0.80;;;16.60;60.30;;;;;;5001084;28;20050;-59
2023/09/22 05:18:41;;;;;;;3.80;1.00;;;16.60;60.30;;;;;;5002668;28;20112;-59
2023/09/22 05:21:09;;;;;;;4.43;0.85;;;16.60;60.30;;;;;;5001762;28;20401;-59
2023/09/22 05:23:38;;;;;;;2.30;0.82;;;16.60;60.20;;;;;;5002047;28;20057;-58
2023/09/22 05:26:07;;;;;;;2.00;0.80;;;16.60;60.10;;;;;;5001976;28;20163;-60
2023/09/22 05:28:34;;;;;;;20.90;9.32;;;16.60;60.10;;;;;;5001641;28;20054;-59
2023/09/22 05:31:04;;;;;;;8.40;4.38;;;16.60;60.20;;;;;;5001041;28;20061;-59
2023/09/22 05:33:32;;;;;;;4.35;2.13;;;16.50;60.20;;;;;;5003155;28;20375;-53
2023/09/22 05:35:59;;;;;;;2.30;1.15;;;16.50;60.30;;;;;;5002760;28;20065;-53
2023/09/22 05:38:27;;;;;;;2.45;1.00;;;16.50;60.30;;;;;;5003107;28;20050;-58
2023/09/22 05:40:55;;;;;;;2.83;1.00;;;16.50;60.40;;;;;;5001286;28;20050;-56
2023/09/22 05:43:23;;;;;;;3.25;0.80;;;16.50;60.50;;;;;;5004392;28;20064;-56
2023/09/22 05:45:54;;;;;;;1.60;0.60;;;16.50;60.50;;;;;;5005135;28;20599;-51
2023/09/22 05:48:21;;;;;;;3.05;0.60;;;16.50;60.50;;;;;;5006677;28;20054;-54
2023/09/22 05:50:56;;;;;;;0.82;0.40;;;16.50;60.50;;;;;;5005146;28;20058;-54
2023/09/22 05:53:25;;;;;;;1.67;0.68;;;16.50;60.60;;;;;;5005188;28;20064;-50
2023/09/22 05:56:04;;;;;;;6.30;1.02;;;16.50;60.60;;;;;;5004333;28;20053;-54
2023/09/22 05:58:32;;;;;;;3.97;0.93;;;16.50;60.70;;;;;;5005466;28;20061;-51
2023/09/22 06:01:06;;;;;;;2.63;0.90;;;16.50;60.70;;;;;;5005287;28;20072;-52
2023/09/22 06:03:34;;;;;;;13.15;6.05;;;16.50;60.80;;;;;;5004754;28;20050;-56
2023/09/22 06:06:06;;;;;;;5.32;2.35;;;16.50;60.80;;;;;;5005827;28;20540;-55
2023/09/22 06:08:33;;;;;;;2.38;1.40;;;16.50;60.90;;;;;;5006748;28;20411;-51
2023/09/22 06:11:01;;;;;;;1.48;0.70;;;16.50;61.00;;;;;;5005957;28;20060;-50
2023/09/22 06:13:30;;;;;;;1.65;0.90;;;16.50;61.10;;;;;;5004751;28;20065;-56
2023/09/22 06:15:57;;;;;;;1.52;0.70;;;16.60;61.20;;;;;;5002297;28;20058;-55
2023/09/22 06:18:25;;;;;;;2.45;0.77;;;16.50;61.20;;;;;;5004780;28;20058;-52
2023/09/22 06:20:54;;;;;;;1.17;0.70;;;16.60;61.40;;;;;;5004992;28;20057;-50
2023/09/22 06:23:23;;;;;;;2.05;1.00;;;16.60;61.50;;;;;;5003906;28;20065;-51
2023/09/22 06:25:51;;;;;;;2.15;1.08;;;16.60;61.50;;;;;;4986507;28;20054;-56
2023/09/22 06:28:18;;;;;;;2.83;0.90;;;16.60;61.50;;;;;;5005099;28;20053;-53
2023/09/22 06:30:47;;;;;;;3.30;0.77;;;16.60;61.50;;;;;;5003654;28;20501;-55
2023/09/22 06:33:15;;;;;;;2.00;0.73;;;16.60;61.60;;;;;;5005009;28;20094;-55
2023/09/22 06:35:43;;;;;;;3.63;0.80;;;16.60;61.60;;;;;;5003681;28;20489;-49
2023/09/22 06:38:11;;;;;;;2.22;0.82;;;16.70;61.80;;;;;;5003667;28;20058;-55
2023/09/22 06:40:38;;;;;;;2.70;0.80;;;16.70;61.80;;;;;;5004243;28;20061;-53
2023/09/22 06:43:07;;;;;;;1.25;0.80;;;16.70;61.90;;;;;;5004449;28;20050;-57
2023/09/22 06:45:36;;;;;;;2.55;0.77;;;16.70;62.00;;;;;;5003417;28;20058;-52
2023/09/22 06:48:06;;;;;;;1.15;0.60;;;16.70;62.20;;;;;;5005313;28;20046;-56
2023/09/22 06:50:34;;;;;;;3.03;1.00;;;16.70;62.20;;;;;;5002366;28;20065;-56
2023/09/22 06:53:02;;;;;;;1.25;0.60;;;16.80;62.30;;;;;;5002882;28;20073;-52
2023/09/22 06:55:30;;;;;;;2.20;0.80;;;16.70;62.20;;;;;;5003989;28;20512;-50
2023/09/22 06:57:58;;;;;;;1.45;0.75;;;16.80;62.20;;;;;;5004587;28;20049;-56
2023/09/22 07:00:28;;;;;;;3.70;0.68;;;16.80;62.20;;;;;;5004189;28;20502;-54
2023/09/22 07:02:56;;;;;;;3.17;0.82;;;16.80;62.30;;;;;;5004229;28;20056;-54
2023/09/22 07:05:25;;;;;;;2.15;0.77;;;16.80;62.30;;;;;;5004072;28;20054;-52
2023/09/22 07:07:52;;;;;;;2.78;0.75;;;16.80;62.30;;;;;;5003578;28;20500;-55
2023/09/22 07:10:20;;;;;;;2.45;0.70;;;16.80;62.30;;;;;;5003952;28;20623;-51
2023/09/22 07:12:48;;;;;;;3.13;1.10;;;16.90;62.40;;;;;;5003154;28;20054;-51
2023/09/22 07:15:15;;;;;;;1.85;0.82;;;16.90;62.50;;;;;;5003728;28;20513;-50
2023/09/22 07:17:44;;;;;;;3.38;0.70;;;16.90;62.50;;;;;;5004562;28;20054;-52
2023/09/22 07:20:14;;;;;;;2.25;0.80;;;16.90;62.60;;;;;;5004282;28;20054;-51
2023/09/22 07:22:43;;;;;;;5.05;0.98;;;16.90;62.70;;;;;;5004347;28;20056;-58
2023/09/22 07:25:11;;;;;;;2.95;0.90;;;17.00;62.70;;;;;;5003367;28;20052;-56
2023/09/22 07:27:39;;;;;;;2.63;0.70;;;17.00;62.70;;;;;;5003651;28;20058;-53
2023/09/22 07:30:09;;;;;;;1.95;0.90;;;17.00;62.80;;;;;;5002502;28;20478;-55
2023/09/22 07:32:38;;;;;;;7.55;0.90;;;17.10;62.90;;;;;;5004206;28;20521;-53
2023/09/22 07:35:07;;;;;;;4.20;1.08;;;17.10;63.10;;;;;;5004584;28;20050;-54
2023/09/22 07:37:34;;;;;;;1.40;0.90;;;17.10;63.10;;;;;;5003578;28;20481;-48
2023/09/22 07:40:08;;;;;;;2.47;0.98;;;17.20;63.30;;;;;;5003494;28;20060;-48
2023/09/22 07:42:37;;;;;;;;;;;17.20;63.20;;;;;;5004853;28;20137;-52
2023/09/22 07:45:05;;;;;;;3.55;0.60;;;17.30;63.10;;;;;;5001546;28;19922;-56
2023/09/22 07:47:34;;;;;;;2.92;0.68;;;17.30;62.90;;;;;;5002993;28;20418;-55
2023/09/22 07:50:01;;;;;;;11.95;6.13;;;17.40;63.00;;;;;;5004803;28;20054;-52
2023/09/22 07:52:28;;;;;;;8.60;3.25;;;17.40;62.90;;;;;;5002552;28;20514;-58
2023/09/22 07:54:56;;;;;;;4.43;2.28;;;17.40;62.90;;;;;;5003972;28;20056;-59
2023/09/22 07:57:30;;;;;;;4.15;1.00;;;17.50;63.00;;;;;;5003301;28;20068;-60
2023/09/22 07:59:57;;;;;;;1.55;0.75;;;17.50;63.00;;;;;;5002814;28;20053;-60
2023/09/22 08:02:25;;;;;;;2.30;0.75;;;17.50;62.80;;;;;;5002177;28;20068;-58
2023/09/22 08:04:52;;;;;;;1.83;1.15;;;17.60;62.70;;;;;;5002547;28;20054;-60
2023/09/22 08:07:20;;;;;;;1.75;0.60;;;17.60;62.70;;;;;;5003055;28;20054;-59
2023/09/22 08:09:48;;;;;;;1.27;0.70;;;17.70;62.70;;;;;;5003264;28;20042;-60
2023/09/22 08:12:16;;;;;;;1.45;0.80;;;17.70;62.50;;;;;;5003262;28;20062;-60
2023/09/22 08:14:45;;;;;;;3.45;0.70;;;17.80;62.20;;;;;;5003327;28;20058;-59
2023/09/22 08:17:12;;;;;;;1.30;0.90;;;17.80;62.00;;;;;;5001515;28;20060;-59
2023/09/22 08:19:39;;;;;;;1.38;0.75;;;17.80;61.90;;;;;;5002696;28;20064;-59
2023/09/22 08:22:06;;;;;;;6.30;0.68;;;17.80;61.80;;;;;;5002147;28;20061;-58
2023/09/22 08:24:34;;;;;;;0.98;0.70;;;17.80;61.70;;;;;;5003911;28;20053;-61
2023/09/22 08:27:02;;;;;;;3.80;0.70;;;17.90;61.70;;;;;;5001001;28;20076;-59
2023/09/22 08:29:29;;;;;;;3.47;1.13;;;17.90;61.60;;;;;;5001261;28;20058;-57
2023/09/22 08:31:58;;;;;;;1.60;0.80;;;17.90;61.40;;;;;;5000231;28;20053;-58
2023/09/22 08:34:26;;;;;;;1.95;0.85;;;17.90;61.00;;;;;;5002197;28;20108;-57
2023/09/22 08:36:53;;;;;;;2.65;0.70;;;17.90;60.80;;;;;;5003266;28;20058;-58
2023/09/22 08:39:21;;;;;;;1.70;0.70;;;18.00;60.50;;;;;;5003632;28;20084;-56
2023/09/22 08:41:49;;;;;;;5.03;0.82;;;18.00;60.00;;;;;;5003140;28;20050;-54
2023/09/22 08:44:17;;;;;;;2.03;0.50;;;18.00;59.70;;;;;;5004628;28;20050;-58
2023/09/22 08:46:45;;;;;;;3.67;1.00;;;18.00;59.50;;;;;;5002270;28;20061;-58
2023/09/22 08:49:15;;;;;;;2.92;0.82;;;18.00;59.50;;;;;;5004037;28;20054;-57
2023/09/22 08:51:42;;;;;;;1.75;0.60;;;18.00;59.50;;;;;;5003433;28;20413;-56
2023/09/22 08:54:11;;;;;;;1.95;0.70;;;18.00;59.50;;;;;;5002710;28;20065;-55
2023/09/22 08:56:39;;;;;;;2.50;0.77;;;18.00;59.40;;;;;;5002830;28;20049;-56
2023/09/22 08:59:08;;;;;;;3.50;0.55;;;18.00;59.40;;;;;;5003114;28;20086;-54
2023/09/22 09:01:36;;;;;;;2.75;0.80;;;18.00;59.30;;;;;;5001689;28;20068;-56
2023/09/22 09:04:32;;;;;;;4.38;0.75;;;18.10;59.10;;;;;;5002695;28;20061;-52
2023/09/22 09:06:59;;;;;;;2.83;0.93;;;18.10;59.00;;;;;;5003400;28;20061;-56
2023/09/22 09:09:26;;;;;;;4.40;0.80;;;18.10;59.10;;;;;;5004912;28;20054;-56
2023/09/22 09:12:00;;;;;;;1.98;0.60;;;18.20;59.30;;;;;;5003321;28;20061;-56
2023/09/22 09:14:28;;;;;;;3.15;0.70;;;18.20;59.30;;;;;;5003950;28;20058;-54
2023/09/22 09:16:56;;;;;;;3.17;0.68;;;18.30;59.40;;;;;;5002802;28;20065;-56
2023/09/22 09:19:24;;;;;;;1.70;0.30;;;18.30;59.30;;;;;;5001473;28;20049;-53
2023/09/22 09:22:09;;;;;;;3.42;0.60;;;18.40;59.40;;;;;;5002950;28;20056;-56
2023/09/22 09:24:37;;;;;;;1.90;0.55;;;18.50;59.50;;;;;;5002668;28;20061;-56
2023/09/22 09:27:17;;;;;;;1.15;0.70;;;18.50;59.30;;;;;;5003170;28;20490;-56
2023/09/22 09:29:47;;;;;;;2.55;0.80;;;18.60;59.10;;;;;;5000423;28;20050;-55
2023/09/22 09:32:24;;;;;;;0.95;0.60;;;18.70;59.00;;;;;;4998439;28;20057;-56
2023/09/22 09:34:52;;;;;;;2.40;0.68;;;18.70;58.50;;;;;;5003220;28;20060;-56
2023/09/22 09:37:21;;;;;;;1.33;0.55;;;18.80;58.50;;;;;;5002524;28;20557;-56
2023/09/22 09:39:50;;;;;;;3.45;0.68;;;18.80;58.20;;;;;;5000889;28;20069;-52
2023/09/22 09:42:19;;;;;;;1.80;0.50;;;18.90;58.10;;;;;;5000893;28;20065;-56
2023/09/22 09:44:49;;;;;;;2.55;0.70;;;18.90;57.80;;;;;;5002781;28;20057;-53
2023/09/22 09:47:23;;;;;;;2.88;0.63;;;19.00;57.50;;;;;;4999476;28;20057;-55
2023/09/22 09:49:56;;;;;;;2.97;0.63;;;19.10;57.50;;;;;;5002383;28;20053;-55
2023/09/22 09:52:31;;;;;;;3.55;0.70;;;19.10;57.50;;;;;;5000316;28;20061;-56
2023/09/22 09:55:10;;;;;;;2.45;0.70;;;19.10;57.40;;;;;;5003619;28;20050;-54
2023/09/22 09:57:39;;;;;;;3.30;0.80;;;19.20;57.10;;;;;;5002076;28;20069;-56
2023/09/22 10:00:14;;;;;;;5.78;1.00;;;19.30;57.30;;;;;;5000067;28;20054;-52
2023/09/22 10:02:43;;;;;;;1.48;0.50;;;19.30;57.00;;;;;;5000085;28;20061;-56
2023/09/22 10:05:12;;;;;;;2.40;0.70;;;19.40;56.50;;;;;;4982129;28;20524;-54
2023/09/22 10:07:42;;;;;;;2.65;0.85;;;19.40;56.30;;;;;;5001184;28;20502;-53
2023/09/22 10:10:11;;;;;;;2.08;0.70;;;19.40;56.00;;;;;;5001457;28;20058;-52
2023/09/22 10:12:39;;;;;;;1.67;0.60;;;19.50;55.90;;;;;;5002531;28;20054;-51
2023/09/22 10:15:08;;;;;;;7.25;0.80;;;19.50;55.50;;;;;;5000079;28;20490;-49
2023/09/22 10:17:36;;;;;;;1.45;0.70;;;19.50;55.00;;;;;;5001330;28;20061;-49
2023/09/22 10:20:10;;;;;;;1.48;0.80;;;19.50;54.80;;;;;;5000497;28;20054;-49
2023/09/22 10:22:38;;;;;;;2.35;0.70;;;19.50;54.30;;;;;;5000515;28;20064;-52
2023/09/22 10:25:27;;;;;;;3.70;0.82;;;19.40;54.10;;;;;;5002409;28;20053;-52
2023/09/22 10:27:56;;;;;;;1.27;0.73;;;19.40;54.20;;;;;;4994047;28;20061;-47
2023/09/22 10:30:30;;;;;;;1.02;0.60;;;19.40;54.60;;;;;;5006135;28;20049;-50
2023/09/22 10:33:16;;;;;;;;;;;19.40;54.50;;;;;;5004032;28;20541;-47
2023/09/22 10:35:44;;;;;;;1.88;0.70;;;19.40;54.80;;;;;;5004921;28;19937;-47
2023/09/22 10:38:11;;;;;;;9.77;1.10;;;19.50;54.10;;;;;;5003471;28;20056;-49
2023/09/22 10:41:00;;;;;;;2.72;0.93;;;19.50;53.90;;;;;;5005738;28;20052;-49
2023/09/22 10:43:28;;;;;;;4.43;0.70;;;19.50;53.70;;;;;;5003481;28;20050;-52
2023/09/22 10:45:55;;;;;;;2.42;0.70;;;19.50;53.80;;;;;;5003609;28;20053;-45
2023/09/22 10:48:23;;;;;;;2.40;0.80;;;19.60;53.60;;;;;;5005714;28;20536;-48
2023/09/22 10:50:52;;;;;;;2.08;0.82;;;19.60;53.40;;;;;;5004880;28;20058;-50
2023/09/22 10:53:20;;;;;;;3.15;0.70;;;19.60;53.30;;;;;;5004014;28;20058;-49
2023/09/22 10:55:49;;;;;;;1.75;0.80;;;19.60;53.30;;;;;;5005277;28;20065;-47
2023/09/22 10:58:21;;;;;;;1.02;0.57;;;19.60;53.00;;;;;;5003306;28;20490;-48
2023/09/22 11:00:56;;;;;;;2.33;0.65;;;19.70;53.20;;;;;;5003178;28;20049;-50
2023/09/22 11:03:24;;;;;;;2.85;1.00;;;19.70;53.20;;;;;;5001584;28;20065;-52
2023/09/22 11:05:58;;;;;;;2.17;0.80;;;19.70;53.30;;;;;;5003992;28;20057;-49
2023/09/22 11:08:25;;;;;;;1.73;0.80;;;19.70;52.60;;;;;;5005129;28;20061;-53
2023/09/22 11:10:55;;;;;;;3.05;0.90;;;19.80;52.80;;;;;;5003616;28;20421;-49
2023/09/22 11:13:24;;;;;;;3.05;0.88;;;19.80;52.70;;;;;;5003636;28;20054;-49
2023/09/22 11:15:56;;;;;;;1.50;0.70;;;19.80;52.10;;;;;;5002910;28;20061;-50
2023/09/22 11:18:25;;;;;;;2.42;0.70;;;19.80;51.90;;;;;;5003858;28;20057;-51
2023/09/22 11:20:57;;;;;;;1.67;0.93;;;19.80;51.80;;;;;;5001966;28;20053;-51
2023/09/22 11:23:25;;;;;;;1.77;0.60;;;19.80;51.20;;;;;;5006134;28;20062;-52
2023/09/22 11:25:59;;;;;;;2.97;0.60;;;19.90;51.60;;;;;;5004824;28;20062;-51
2023/09/22 11:28:28;;;;;;;1.75;0.80;;;19.90;51.30;;;;;;5003362;28;20064;-54
2023/09/22 11:30:57;;;;;;;15.13;2.38;;;19.90;51.30;;;;;;5004245;28;20058;-53
2023/09/22 11:33:26;;;;;;;8.05;1.25;;;19.90;51.60;;;;;;5004482;28;20054;-52
2023/09/22 11:35:53;;;;;;;11.13;1.83;;;19.90;51.60;;;;;;5003122;28;20057;-50
2023/09/22 11:38:23;;;;;;;4.28;0.80;;;19.90;51.30;;;;;;5003584;28;20054;-49
2023/09/22 11:40:51;;;;;;;7.75;1.58;;;19.90;51.40;;;;;;5002908;28;20057;-52
2023/09/22 11:43:20;;;;;;;3.20;0.70;;;19.90;51.00;;;;;;5004316;28;20053;-48
2023/09/22 11:45:47;;;;;;;1.67;0.63;;;20.00;50.90;;;;;;5004327;28;20511;-52
2023/09/22 11:48:15;;;;;;;5.35;1.10;;;20.00;50.70;;;;;;5003684;28;20053;-53
2023/09/22 11:50:43;;;;;;;2.13;0.73;;;20.00;50.80;;;;;;5002542;28;20050;-52
2023/09/22 11:53:17;;;;;;;8.82;1.50;;;20.00;50.90;;;;;;5002735;28;20064;-50
2023/09/22 11:55:46;;;;;;;5.43;1.10;;;20.10;50.70;;;;;;5003567;28;20133;-52
2023/09/22 11:58:15;;;;;;;13.98;1.48;;;20.00;50.90;;;;;;5003902;28;20429;-56
2023/09/22 12:00:45;;;;;;;4.63;1.40;;;20.10;50.90;;;;;;4999826;28;20065;-54
2023/09/22 12:03:12;;;;;;;9.68;1.80;;;20.10;51.00;;;;;;5001988;28;20059;-50
2023/09/22 12:05:39;;;;;;;11.18;1.52;;;20.10;51.00;;;;;;5002558;28;20069;-54
2023/09/22 12:08:10;;;;;;;8.82;1.40;;;20.20;51.00;;;;;;5002166;28;20125;-54
2023/09/22 12:10:37;;;;;;;3.50;0.73;;;20.20;50.90;;;;;;5011606;28;20049;-52
2023/09/22 12:13:05;;;;;;;1.98;0.70;;;20.30;50.80;;;;;;5002788;28;20634;-49
2023/09/22 12:15:32;;;;;;;2.78;0.82;;;20.30;50.80;;;;;;5000182;28;20049;-52
2023/09/22 12:18:03;;;;;;;2.08;0.93;;;20.30;50.30;;;;;;5001749;28;20050;-52
2023/09/22 12:20:30;;;;;;;1.02;0.50;;;20.30;50.30;;;;;;5002223;28;20486;-48
2023/09/22 12:22:58;;;;;;;1.70;0.68;;;20.30;50.30;;;;;;5003296;28;20053;-49
2023/09/22 12:25:25;;;;;;;2.53;0.80;;;20.30;50.10;;;;;;5002173;28;20065;-53
2023/09/22 12:27:53;;;;;;;2.42;0.60;;;20.30;49.80;;;;;;5002584;28;20076;-50
2023/09/22 12:30:20;;;;;;;1.85;0.65;;;20.30;49.60;;;;;;5000068;28;20060;-54
2023/09/22 12:32:48;;;;;;;5.90;0.77;;;20.30;49.70;;;;;;5006676;28;20045;-51
2023/09/22 12:35:16;;;;;;;1.38;0.55;;;20.30;49.90;;;;;;5002930;28;20057;-51
2023/09/22 12:37:44;;;;;;;1.30;0.52;;;20.40;49.60;;;;;;5002434;28;20520;-50
2023/09/22 12:40:12;;;;;;;1.55;0.63;;;20.40;49.70;;;;;;5001666;28;20053;-51
2023/09/22 12:42:39;;;;;;;3.28;0.65;;;20.40;49.90;;;;;;5003199;28;20505;-53
2023/09/22 12:45:09;;;;;;;1.63;0.70;;;20.40;50.30;;;;;;5003386;28;20076;-49
2023/09/22 12:47:36;;;;;;;1.02;0.50;;;20.40;50.60;;;;;;5004127;28;20421;-52
2023/09/22 12:50:08;;;;;;;3.42;0.80;;;20.40;50.80;;;;;;5003119;28;20050;-53
2023/09/22 12:52:37;;;;;;;2.03;0.63;;;20.40;50.80;;;;;;5001931;28;20061;-52
2023/09/22 12:55:06;;;;;;;1.08;0.50;;;20.50;51.00;;;;;;5002225;28;20049;-51